createdAt,value
2023-01-28T00:00:01.176Z,1.1
2023-01-28T00:03:01.426Z,1.1
2023-01-28T00:06:01.078Z,1.1
2023-01-28T00:09:01.078Z,1.1
2023-01-28T00:12:01.085Z,1.1
2023-01-28T00:15:01.113Z,1.1
2023-01-28T00:18:01.089Z,1.1
2023-01-28T00:21:01.106Z,1.1
2023-01-28T00:24:01.237Z,1.1
2023-01-28T00:27:01.132Z,1.1
2023-01-28T00:30:01.144Z,1.1
2023-01-28T00:33:01.092Z,0.8
2023-01-28T00:36:01.129Z,0.8
2023-01-28T00:39:01.103Z,0.8
2023-01-28T00:42:01.117Z,0.8
2023-01-28T00:45:01.075Z,0.8
2023-01-28T00:48:01.067Z,0.8
2023-01-28T00:51:01.081Z,0.8
2023-01-28T00:54:01.070Z,0.8
2023-01-28T00:57:01.120Z,0.8
2023-01-28T01:00:01.578Z,0.8
2023-01-28T01:03:01.082Z,0.8
2023-01-28T01:06:01.117Z,0.8
2023-01-28T01:09:01.079Z,0.8
2023-01-28T01:12:01.111Z,0.7
2023-01-28T01:15:01.119Z,0.7
2023-01-28T01:18:01.068Z,0.7
2023-01-28T01:21:01.105Z,0.7
2023-01-28T01:24:01.211Z,0.7
2023-01-28T01:27:01.122Z,0.7
2023-01-28T01:30:01.591Z,0.7
2023-01-28T01:33:01.158Z,0.7
2023-01-28T01:36:01.135Z,0.7
2023-01-28T01:39:01.160Z,0.7
2023-01-28T01:42:01.092Z,0.7
2023-01-28T01:45:01.104Z,0.7
2023-01-28T01:48:01.100Z,0.7
2023-01-28T01:51:01.131Z,0.7
2023-01-28T01:54:01.038Z,0.7
2023-01-28T01:57:01.141Z,0.7
2023-01-28T02:00:01.167Z,0.7
2023-01-28T02:03:01.173Z,0.7
2023-01-28T02:06:01.151Z,0.7
2023-01-28T02:09:01.137Z,0.7
2023-01-28T02:12:01.095Z,0.7
2023-01-28T02:15:01.081Z,0.7
2023-01-28T02:18:01.121Z,0.7
2023-01-28T02:21:01.102Z,0.7
2023-01-28T02:24:01.180Z,0.7
2023-01-28T02:27:01.078Z,0.7
2023-01-28T02:30:01.109Z,0.7
2023-01-28T02:33:01.146Z,0.7
2023-01-28T02:36:01.083Z,0.7
2023-01-28T02:39:01.097Z,0.7
2023-01-28T02:42:01.100Z,0.7
2023-01-28T02:45:01.153Z,0.7
2023-01-28T02:48:01.152Z,0.7
2023-01-28T02:51:01.094Z,0.7
2023-01-28T02:54:01.081Z,0.7
2023-01-28T02:57:01.095Z,0.7
2023-01-28T03:00:01.203Z,0.7
2023-01-28T03:03:01.112Z,0.8
2023-01-28T03:06:01.170Z,0.8
2023-01-28T03:09:01.116Z,0.8
2023-01-28T03:12:01.118Z,0.8
2023-01-28T03:15:01.659Z,0.8
2023-01-28T03:18:01.347Z,0.8
2023-01-28T03:21:01.213Z,0.8
2023-01-28T03:24:01.198Z,0.8
2023-01-28T03:27:01.125Z,0.8
2023-01-28T03:30:01.069Z,0.8
2023-01-28T03:33:01.085Z,0.8
2023-01-28T03:36:01.105Z,0.8
2023-01-28T03:39:01.154Z,0.8
2023-01-28T03:42:01.088Z,0.8
2023-01-28T03:45:01.069Z,0.8
2023-01-28T03:48:01.125Z,0.8
2023-01-28T03:51:01.173Z,0.8
2023-01-28T03:54:01.071Z,0.7
2023-01-28T03:57:01.093Z,0.7
2023-01-28T04:00:01.101Z,0.7
2023-01-28T04:03:01.216Z,0.7
2023-01-28T04:06:01.059Z,0.7
2023-01-28T04:09:01.066Z,0.7
2023-01-28T04:12:01.058Z,0.7
2023-01-28T04:15:01.089Z,0.7
2023-01-28T04:18:01.088Z,0.7
2023-01-28T04:21:01.151Z,0.7
2023-01-28T04:24:01.108Z,0.7
2023-01-28T04:27:01.055Z,0.7
2023-01-28T04:30:01.063Z,0.7
2023-01-28T04:33:01.086Z,0.7
2023-01-28T04:36:01.141Z,0.7
2023-01-28T04:39:01.123Z,0.7
2023-01-28T04:42:01.129Z,0.7
2023-01-28T04:45:01.123Z,0.7
2023-01-28T04:48:01.093Z,0.7
2023-01-28T04:51:01.056Z,0.7
2023-01-28T04:54:01.069Z,0.7
2023-01-28T04:57:01.063Z,0.7
2023-01-28T05:00:01.099Z,0.7
2023-01-28T05:03:01.111Z,0.7
2023-01-28T05:06:01.063Z,0.7
2023-01-28T05:09:01.073Z,0.7
2023-01-28T05:12:01.071Z,0.7
2023-01-28T05:15:01.058Z,0.7
2023-01-28T05:18:01.115Z,0.7
2023-01-28T05:21:01.130Z,0.7
2023-01-28T05:24:01.283Z,0.7
2023-01-28T05:27:01.182Z,0.7
2023-01-28T05:30:01.132Z,0.7
2023-01-28T05:33:01.129Z,0.7
2023-01-28T05:36:01.064Z,0.7
2023-01-28T05:39:01.073Z,0.7
2023-01-28T05:42:01.123Z,0.7
2023-01-28T05:45:01.081Z,0.7
2023-01-28T05:48:01.073Z,0.7
2023-01-28T05:51:01.100Z,0.7
2023-01-28T05:54:01.188Z,0.7
2023-01-28T05:57:01.146Z,0.7
2023-01-28T06:00:01.091Z,0.7
2023-01-28T06:03:01.136Z,0.7
2023-01-28T06:06:01.124Z,0.7
2023-01-28T06:09:01.054Z,0.7
2023-01-28T06:12:01.134Z,0.7
2023-01-28T06:15:01.110Z,0.7
2023-01-28T06:18:01.101Z,0.7
2023-01-28T06:21:01.072Z,0.7
2023-01-28T06:24:01.354Z,0.7
2023-01-28T06:27:01.080Z,0.7
2023-01-28T06:30:01.072Z,0.7
2023-01-28T06:33:01.048Z,0.7
2023-01-28T06:36:01.087Z,0.7
2023-01-28T06:39:01.131Z,0.7
2023-01-28T06:42:01.061Z,0.7
2023-01-28T06:45:01.153Z,0.7
2023-01-28T06:48:01.083Z,0.7
2023-01-28T06:51:01.062Z,0.7
2023-01-28T06:54:01.208Z,0.7
2023-01-28T06:57:01.191Z,0.7
2023-01-28T07:00:01.104Z,0.7
2023-01-28T07:03:01.158Z,0.7
2023-01-28T07:06:01.149Z,0.7
2023-01-28T07:09:01.168Z,0.7
2023-01-28T07:12:01.209Z,0.7
2023-01-28T07:15:01.107Z,0.7
2023-01-28T07:18:01.408Z,0.7
2023-01-28T07:21:01.104Z,0.7
2023-01-28T07:24:01.306Z,0.7
2023-01-28T07:27:01.131Z,0.7
2023-01-28T07:30:01.442Z,0.7
2023-01-28T07:33:01.190Z,0.7
2023-01-28T07:36:01.261Z,0.7
2023-01-28T07:39:01.186Z,0.7
2023-01-28T07:42:01.189Z,0.7
2023-01-28T07:45:01.242Z,0.7
2023-01-28T07:48:01.166Z,0.7
2023-01-28T07:51:01.283Z,0.7
2023-01-28T07:54:01.437Z,0.7
2023-01-28T07:57:01.344Z,0.7
2023-01-28T08:00:01.783Z,0.7
2023-01-28T08:03:01.338Z,0.7
2023-01-28T08:06:01.178Z,0.7
2023-01-28T08:09:02.091Z,0.7
2023-01-28T08:12:01.169Z,0.7
2023-01-28T08:15:01.141Z,0.7
2023-01-28T08:18:01.127Z,0.7
2023-01-28T08:21:01.199Z,0.7
2023-01-28T08:24:01.237Z,0.7
2023-01-28T08:27:01.142Z,0.7
2023-01-28T08:30:01.140Z,0.8
2023-01-28T08:33:01.108Z,0.8
2023-01-28T08:36:01.141Z,0.8
2023-01-28T08:39:01.176Z,0.8
2023-01-28T08:42:01.122Z,0.8
2023-01-28T08:45:01.158Z,0.8
2023-01-28T08:48:01.116Z,0.8
2023-01-28T08:51:01.141Z,0.8
2023-01-28T08:54:01.138Z,0.8
2023-01-28T08:57:01.116Z,0.8
2023-01-28T09:00:01.210Z,0.8
2023-01-28T09:03:02.268Z,0.8
2023-01-28T09:06:01.109Z,0.8
2023-01-28T09:09:01.144Z,0.9
2023-01-28T09:12:01.140Z,0.9
2023-01-28T09:15:01.182Z,0.9
2023-01-28T09:18:01.084Z,0.9
2023-01-28T09:21:01.143Z,0.9
2023-01-28T09:24:01.240Z,0.9
2023-01-28T09:27:01.143Z,0.9
2023-01-28T09:30:01.214Z,0.9
2023-01-28T09:33:01.173Z,0.9
2023-01-28T09:36:01.142Z,0.9
2023-01-28T09:39:01.962Z,0.9
2023-01-28T09:42:01.210Z,0.9
2023-01-28T09:45:01.108Z,0.9
2023-01-28T09:48:01.178Z,0.9
2023-01-28T09:51:01.211Z,0.9
2023-01-28T09:54:01.164Z,0.9
2023-01-28T09:57:01.195Z,0.9
2023-01-28T10:00:01.131Z,0.9
2023-01-28T10:03:01.118Z,0.9
2023-01-28T10:06:01.146Z,1.3
2023-01-28T10:09:01.154Z,1.3
2023-01-28T10:12:01.129Z,1.3
2023-01-28T10:15:01.115Z,1.3
2023-01-28T10:18:17.444Z,1.3
2023-01-28T10:21:01.217Z,1.3
2023-01-28T10:24:01.206Z,1.3
2023-01-28T10:27:01.162Z,1.3
2023-01-28T10:30:01.130Z,1.3
2023-01-28T10:33:01.180Z,1.3
2023-01-28T10:36:01.135Z,1.3
2023-01-28T10:39:01.260Z,1.3
2023-01-28T10:42:01.158Z,1.3
2023-01-28T10:45:01.112Z,1.3
2023-01-28T10:48:01.154Z,1.3
2023-01-28T10:51:01.114Z,1.3
2023-01-28T10:54:01.136Z,1.3
2023-01-28T10:57:01.256Z,1.3
2023-01-28T11:00:01.473Z,1.3
2023-01-28T11:03:01.149Z,1.3
2023-01-28T11:06:01.147Z,1.3
2023-01-28T11:09:01.840Z,1.3
2023-01-28T11:12:01.174Z,1.3
2023-01-28T11:15:01.093Z,1.3
2023-01-28T11:18:01.222Z,1.3
2023-01-28T11:21:01.172Z,1.3
2023-01-28T11:24:01.252Z,1.3
2023-01-28T11:27:02.398Z,1.3
2023-01-28T11:30:01.221Z,1.3
2023-01-28T11:33:01.185Z,1.3
2023-01-28T11:36:01.230Z,1.3
2023-01-28T11:39:01.157Z,1.3
2023-01-28T11:42:01.155Z,1.3
2023-01-28T11:45:01.155Z,1.3
2023-01-28T11:48:01.173Z,1.3
2023-01-28T11:51:01.085Z,1.3
2023-01-28T11:54:01.171Z,1.3
2023-01-28T11:57:01.142Z,1.3
2023-01-28T12:00:01.448Z,1.4
2023-01-28T12:03:01.202Z,1.4
2023-01-28T12:06:01.120Z,1.4
2023-01-28T12:09:01.116Z,1.4
2023-01-28T12:12:01.704Z,1.4
2023-01-28T12:15:01.117Z,1.4
2023-01-28T12:18:01.147Z,1.4
2023-01-28T12:21:01.152Z,1.4
2023-01-28T12:24:01.197Z,1.4
2023-01-28T12:27:01.180Z,1.4
2023-01-28T12:30:01.144Z,1.4
2023-01-28T12:33:01.177Z,1.4
2023-01-28T12:36:01.173Z,1.4
2023-01-28T12:39:01.143Z,1.4
2023-01-28T12:42:01.174Z,1.4
2023-01-28T12:45:01.153Z,1.4
2023-01-28T12:48:01.122Z,1.4
2023-01-28T12:51:01.164Z,1.5
2023-01-28T12:54:01.185Z,1.5
2023-01-28T12:57:01.156Z,1.5
2023-01-28T13:00:01.163Z,1.5
2023-01-28T13:03:01.226Z,1.5
2023-01-28T13:06:01.155Z,1.5
2023-01-28T13:09:01.211Z,1.4
2023-01-28T13:12:01.110Z,1.4
2023-01-28T13:15:01.130Z,1.4
2023-01-28T13:18:01.244Z,1.4
2023-01-28T13:21:01.157Z,1.4
2023-01-28T13:24:01.230Z,1.5
2023-01-28T13:27:01.301Z,1.5
2023-01-28T13:30:01.174Z,1.6
2023-01-28T13:33:01.179Z,1.6
2023-01-28T13:36:01.226Z,1.6
2023-01-28T13:39:01.143Z,1.6
2023-01-28T13:42:01.082Z,1.6
2023-01-28T13:45:01.155Z,1.6
2023-01-28T13:48:01.112Z,1.6
2023-01-28T13:51:01.112Z,1.6
2023-01-28T13:54:01.135Z,1.6
2023-01-28T13:57:01.286Z,1.6
2023-01-28T14:00:01.276Z,1.6
2023-01-28T14:03:01.204Z,1.6
2023-01-28T14:06:01.238Z,1.6
2023-01-28T14:09:01.178Z,1.6
2023-01-28T14:12:01.211Z,1.6
2023-01-28T14:15:01.159Z,1.6
2023-01-28T14:18:01.205Z,1.6
2023-01-28T14:21:01.209Z,1.6
2023-01-28T14:24:01.215Z,1.6
2023-01-28T14:27:01.206Z,1.6
2023-01-28T14:30:01.208Z,1.6
2023-01-28T14:33:01.151Z,1.6
2023-01-28T14:36:01.221Z,1.6
2023-01-28T14:39:01.168Z,1.6
2023-01-28T14:42:01.189Z,1.6
2023-01-28T14:45:01.216Z,1.6
2023-01-28T14:48:01.224Z,1.6
2023-01-28T14:51:01.104Z,1.8
2023-01-28T14:54:01.114Z,1.7
2023-01-28T14:57:01.158Z,1.7
2023-01-28T15:00:01.165Z,1.7
2023-01-28T15:03:05.873Z,1.7
2023-01-28T15:06:01.124Z,1.7
2023-01-28T15:09:01.213Z,1.7
2023-01-28T15:12:04.152Z,1.7
2023-01-28T15:15:01.163Z,1.7
2023-01-28T15:18:01.106Z,1.7
2023-01-28T15:21:01.142Z,1.7
2023-01-28T15:24:01.317Z,1.7
2023-01-28T15:27:01.172Z,1.7
2023-01-28T15:30:01.091Z,1.7
2023-01-28T15:33:01.218Z,1.7
2023-01-28T15:36:01.219Z,1.7
2023-01-28T15:39:01.265Z,1.7
2023-01-28T15:42:01.235Z,1.7
2023-01-28T15:45:01.211Z,1.7
2023-01-28T15:48:01.302Z,1.4
2023-01-28T15:51:01.169Z,1.4
2023-01-28T15:54:01.199Z,1.4
2023-01-28T15:57:01.175Z,1.4
2023-01-28T16:00:02.208Z,1.4
2023-01-28T16:03:01.224Z,1.4
2023-01-28T16:06:01.116Z,1.3
2023-01-28T16:09:01.161Z,1.3
2023-01-28T16:12:01.207Z,1.3
2023-01-28T16:15:01.137Z,1.3
2023-01-28T16:18:01.169Z,1.3
2023-01-28T16:21:01.128Z,1.3
2023-01-28T16:24:01.235Z,1.1
2023-01-28T16:27:01.111Z,1.1
2023-01-28T16:30:01.271Z,1.1
2023-01-28T16:33:01.123Z,1.1
2023-01-28T16:36:09.034Z,0.8
2023-01-28T16:39:01.126Z,0.8
2023-01-28T16:42:01.117Z,0.8
2023-01-28T16:45:01.217Z,0.8
2023-01-28T16:48:01.084Z,0.6
2023-01-28T16:51:01.095Z,0.6
2023-01-28T16:54:01.122Z,0.6
2023-01-28T16:57:01.063Z,0.6
2023-01-28T17:00:01.115Z,0.6
2023-01-28T17:03:01.062Z,0.6
2023-01-28T17:06:01.391Z,0.6
2023-01-28T17:09:01.101Z,0.6
2023-01-28T17:12:01.178Z,0.6
2023-01-28T17:15:01.159Z,0.6
2023-01-28T17:18:01.111Z,0.6
2023-01-28T17:21:01.067Z,0.6
2023-01-28T17:24:01.251Z,0.6
2023-01-28T17:27:01.129Z,0.6
2023-01-28T17:30:01.107Z,0.6
2023-01-28T17:33:01.099Z,0.6
2023-01-28T17:36:01.137Z,0.6
2023-01-28T17:39:01.126Z,0.3
2023-01-28T17:42:01.113Z,0.3
2023-01-28T17:45:01.014Z,0.3
2023-01-28T17:48:01.165Z,0.3
2023-01-28T17:51:01.395Z,0.2
2023-01-28T17:54:01.091Z,0.1
2023-01-28T17:57:01.104Z,0.1
2023-01-28T18:00:01.131Z,0.1
2023-01-28T18:03:01.043Z,0.1
2023-01-28T18:06:01.059Z,0.1
2023-01-28T18:09:01.135Z,0.1
2023-01-28T18:12:01.135Z,0.1
2023-01-28T18:15:01.079Z,0.1
2023-01-28T18:18:01.148Z,0.1
2023-01-28T18:21:01.134Z,-0.1
2023-01-28T18:24:01.176Z,-0.1
2023-01-28T18:27:01.144Z,-0.1
2023-01-28T18:30:01.132Z,-0.1
2023-01-28T18:33:01.132Z,-0.2
2023-01-28T18:36:01.156Z,-0.2
2023-01-28T18:39:01.092Z,-0.2
2023-01-28T18:42:01.090Z,-0.2
2023-01-28T18:45:01.108Z,-0.2
2023-01-28T18:48:01.051Z,-0.2
2023-01-28T18:51:01.131Z,-0.2
2023-01-28T18:54:01.207Z,-0.2
2023-01-28T18:57:01.077Z,-0.2
2023-01-28T19:00:01.176Z,-0.2
2023-01-28T19:03:01.109Z,-0.2
2023-01-28T19:06:01.426Z,-0.2
2023-01-28T19:09:01.107Z,-0.2
2023-01-28T19:12:01.121Z,-0.2
2023-01-28T19:15:01.112Z,-0.6
2023-01-28T19:18:01.059Z,-0.6
2023-01-28T19:21:01.183Z,-0.6
2023-01-28T19:24:01.278Z,-0.6
2023-01-28T19:27:01.146Z,-0.6
2023-01-28T19:30:01.105Z,-0.6
2023-01-28T19:33:01.106Z,-0.6
2023-01-28T19:36:01.104Z,-0.6
2023-01-28T19:39:01.132Z,-0.6
2023-01-28T19:42:01.189Z,-0.6
2023-01-28T19:45:04.157Z,-0.6
2023-01-28T19:48:01.090Z,-0.6
2023-01-28T19:51:01.074Z,-0.6
2023-01-28T19:54:01.062Z,-0.6
2023-01-28T19:57:01.142Z,-0.6
2023-01-28T20:00:01.183Z,-0.6
2023-01-28T20:03:01.105Z,-0.6
2023-01-28T20:06:01.105Z,-0.6
2023-01-28T20:09:01.127Z,-0.7
2023-01-28T20:12:01.125Z,-0.7
2023-01-28T20:15:01.179Z,-0.7
2023-01-28T20:18:01.424Z,-0.7
2023-01-28T20:21:01.029Z,-0.7
2023-01-28T20:24:01.284Z,-0.8
2023-01-28T20:27:01.092Z,-0.8
2023-01-28T20:30:01.208Z,-0.8
2023-01-28T20:33:01.138Z,-0.8
2023-01-28T20:36:01.083Z,-0.8
2023-01-28T20:39:01.043Z,-0.8
2023-01-28T20:42:01.161Z,-0.8
2023-01-28T20:45:01.156Z,-0.8
2023-01-28T20:48:01.091Z,-0.8
2023-01-28T20:51:01.081Z,-0.8
2023-01-28T20:54:01.156Z,-0.8
2023-01-28T20:57:01.107Z,-0.8
2023-01-28T21:00:01.886Z,-0.8
2023-01-28T21:03:01.251Z,-0.8
2023-01-28T21:06:01.104Z,-0.8
2023-01-28T21:09:01.178Z,-0.8
2023-01-28T21:12:01.058Z,-0.8
2023-01-28T21:15:01.084Z,-0.8
2023-01-28T21:18:01.111Z,-1
2023-01-28T21:21:01.099Z,-1
2023-01-28T21:24:01.416Z,-1
2023-01-28T21:27:01.099Z,-1
2023-01-28T21:30:01.137Z,-1
2023-01-28T21:33:01.105Z,-1
2023-01-28T21:36:01.152Z,-1.1
2023-01-28T21:39:01.159Z,-1.1
2023-01-28T21:42:01.131Z,-1.1
2023-01-28T21:45:01.260Z,-1.1
2023-01-28T21:48:01.092Z,-1.1
2023-01-28T21:51:01.121Z,-1.1
2023-01-28T21:54:01.074Z,-1.1
2023-01-28T21:57:01.071Z,-1.1
2023-01-28T22:00:01.160Z,-1.1
2023-01-28T22:03:01.216Z,-1.1
2023-01-28T22:06:01.034Z,-1.1
2023-01-28T22:09:01.139Z,-1.1
2023-01-28T22:12:01.138Z,-1.1
2023-01-28T22:15:01.078Z,-1.1
2023-01-28T22:18:01.081Z,-1.1
2023-01-28T22:21:01.071Z,-1.1
2023-01-28T22:24:01.160Z,-1.1
2023-01-28T22:27:01.046Z,-1.4
2023-01-28T22:30:01.148Z,-1.4
2023-01-28T22:33:01.084Z,-1.4
2023-01-28T22:36:01.100Z,-1.4
2023-01-28T22:39:01.046Z,-1.4
2023-01-28T22:42:01.119Z,-1.4
2023-01-28T22:45:01.071Z,-1.4
2023-01-28T22:48:01.077Z,-1.6
2023-01-28T22:51:01.072Z,-1.6
2023-01-28T22:54:01.164Z,-1.6
2023-01-28T22:57:01.101Z,-1.6
2023-01-28T23:00:01.799Z,-1.6
2023-01-28T23:03:01.155Z,-1.6
2023-01-28T23:06:01.046Z,-1.6
2023-01-28T23:09:01.097Z,-1.6
2023-01-28T23:12:01.059Z,-1.6
2023-01-28T23:15:01.302Z,-1.6
2023-01-28T23:18:01.188Z,-1.6
2023-01-28T23:21:01.132Z,-1.6
2023-01-28T23:24:01.237Z,-2
2023-01-28T23:27:01.180Z,-2
2023-01-28T23:30:01.157Z,-2
2023-01-28T23:33:01.083Z,-2
2023-01-28T23:36:01.106Z,-2
2023-01-28T23:39:01.061Z,-2
2023-01-28T23:42:01.109Z,-2
2023-01-28T23:45:01.080Z,-2
2023-01-28T23:48:01.185Z,-2
2023-01-28T23:51:01.135Z,-2
2023-01-28T23:54:01.042Z,-2
2023-01-28T23:57:01.117Z,-2
